Startpagina
METAR-TAF:

METAR-TAF

Vliegvelden :

Río Hato, Panama

breedte: 08-22-33N, lengte: 080-07-40W, hoogte: 32 m

Actueel weer

Dit bericht is 26 minuten geleden gemaakt, om 13:00 UTC
Wind 5 kt uit het noordwesten
Temperatuur 25°C
Vochtigheid 94%
Druk 1011 hPa
Zicht 10 km of meer
Weinig wolken op 2000 ft
Verspreide wolken op 8000 ft

METAR: MPSM 231300Z 31005KT 9999 FEW020 SCT080 25/24 Q1011

Tijdstip: 08:26 (13:26 UTC)

Verwachting

Dit bericht is 2 uur en het 51 minuten geleden gemaakt, om 10:35 UTC
Verwachting geldig van 23 om 12 UTC tot 24 om 18 UTC
Wind 6 kt uit het noordwesten
Zicht 10 km of meer
Verspreide wolken op 1800 ft
Gebroken wolken op 9000 ft
Kans 40% :
Tijdelijke
van 23 om 18 UTC tot 23 om 22 UTC
Wind 8 kt uit het zuidzuidoosten
Zicht: 6000 m
Verspreide wolken op 1500 ft, Cumulonimbus.
Gebroken wolken op 8000 ft
onweer, regen

TAF: MPSM 231035Z 2312/2418 32006KT 9999 SCT018 BKN090 PROB40 TEMPO 2318/2322 16008KT 6000 TSRA SCT015CB BKN080

Waarnemingen en weersverwachtingen van meer dan 4000 vliegvelden (METAR en TAF).

De beschikbare stations zijn de gele en rode punten op de kaart.

Ga met uw muis naar het station om de naam te zien.

Klik dan om waarnemingen en weersverwachtingen te zien.

kaart wijzigen: klik op de groene knoppen met een zwart kruis om in te zoomen, op de groene knop met een streepje om uit te zoomen of op de groene pijlen voor aangrenzende kaarten.


METAR-TAF: